createdAt,value
2023-04-21T00:00:48.409Z,0.00
2023-04-21T00:01:48.455Z,0.00
2023-04-21T00:02:48.675Z,0.00
2023-04-21T00:03:48.586Z,0.00
2023-04-21T00:04:48.707Z,0.00
2023-04-21T00:05:48.724Z,0.00
2023-04-21T00:06:48.560Z,0.00
2023-04-21T00:07:48.580Z,0.00
2023-04-21T00:08:48.601Z,0.00
2023-04-21T00:09:48.629Z,0.00
2023-04-21T00:10:48.654Z,0.00
2023-04-21T00:11:48.688Z,0.00
2023-04-21T00:12:48.703Z,0.00
2023-04-21T00:13:48.725Z,0.00
2023-04-21T00:14:48.758Z,0.00
2023-04-21T00:15:48.823Z,0.00
2023-04-21T00:16:48.806Z,0.00
2023-04-21T00:17:48.874Z,0.00
2023-04-21T00:18:48.848Z,0.00
2023-04-21T00:19:48.874Z,0.00
2023-04-21T00:20:48.898Z,0.00
2023-04-21T00:21:48.922Z,0.00
2023-04-21T00:22:48.947Z,0.00
2023-04-21T00:23:48.973Z,0.00
2023-04-21T00:24:49.000Z,0.00
2023-04-21T00:25:49.042Z,0.00
2023-04-21T00:26:49.044Z,0.00
2023-04-21T00:27:49.072Z,0.00
2023-04-21T00:28:49.096Z,0.00
2023-04-21T00:29:49.125Z,0.00
2023-04-21T00:30:49.151Z,0.00
2023-04-21T00:31:49.254Z,0.00
2023-04-21T00:32:49.215Z,0.00
2023-04-21T00:33:49.249Z,0.00
2023-04-21T00:34:49.245Z,0.00
2023-04-21T00:35:49.273Z,0.00
2023-04-21T00:36:49.293Z,0.00
2023-04-21T00:37:49.321Z,0.00
2023-04-21T00:38:49.342Z,0.00
2023-04-21T00:39:49.370Z,0.00
2023-04-21T00:40:49.403Z,0.00
2023-04-21T00:41:49.417Z,0.00
2023-04-21T00:42:49.445Z,0.00
2023-04-21T00:43:49.468Z,0.00
2023-04-21T00:44:49.492Z,0.00
2023-04-21T00:45:49.821Z,0.00
2023-04-21T00:46:49.602Z,0.00
2023-04-21T00:47:49.587Z,0.00
2023-04-21T00:48:49.599Z,0.00
2023-04-21T00:49:50.648Z,0.00
2023-04-21T00:50:49.642Z,0.00
2023-04-21T00:51:49.666Z,0.00
2023-04-21T00:52:49.689Z,0.00
2023-04-21T00:53:50.122Z,0.00
2023-04-21T00:54:49.747Z,0.00
2023-04-21T00:55:49.769Z,0.00
2023-04-21T00:56:49.787Z,0.00
2023-04-21T00:57:49.812Z,0.00
2023-04-21T00:58:49.843Z,0.00
2023-04-21T00:59:50.063Z,0.00
2023-04-21T01:00:49.951Z,0.00
2023-04-21T01:01:49.952Z,0.00
2023-04-21T01:02:50.178Z,0.00
2023-04-21T01:03:50.203Z,0.00
2023-04-21T01:04:50.396Z,0.00
2023-04-21T01:05:50.034Z,0.00
2023-04-21T01:06:50.040Z,0.00
2023-04-21T01:07:50.062Z,0.00
2023-04-21T01:08:50.084Z,0.00
2023-04-21T01:09:50.115Z,0.00
2023-04-21T01:10:50.134Z,0.00
2023-04-21T01:11:50.165Z,0.00
2023-04-21T01:12:50.188Z,0.00
2023-04-21T01:13:50.216Z,0.00
2023-04-21T01:14:50.237Z,0.00
2023-04-21T01:15:50.264Z,0.00
2023-04-21T01:16:50.303Z,0.00
2023-04-21T01:17:50.339Z,0.00
2023-04-21T01:18:50.338Z,0.00
2023-04-21T01:19:50.364Z,0.00
2023-04-21T01:20:50.385Z,0.00
2023-04-21T01:21:50.439Z,0.00
2023-04-21T01:22:50.437Z,0.00
2023-04-21T01:23:50.463Z,0.00
2023-04-21T01:24:50.488Z,0.00
2023-04-21T01:25:50.515Z,0.00
2023-04-21T01:26:50.544Z,0.00
2023-04-21T01:27:50.575Z,0.00
2023-04-21T01:28:50.619Z,0.00
2023-04-21T01:29:50.626Z,0.00
2023-04-21T01:30:50.660Z,0.00
2023-04-21T01:31:50.714Z,0.00
2023-04-21T01:32:50.750Z,0.00
2023-04-21T01:33:50.722Z,0.00
2023-04-21T01:34:50.750Z,0.00
2023-04-21T01:35:50.770Z,0.00
2023-04-21T01:36:50.792Z,0.00
2023-04-21T01:37:50.835Z,0.00
2023-04-21T01:38:50.840Z,0.00
2023-04-21T01:39:50.871Z,0.00
2023-04-21T01:40:50.896Z,0.00
2023-04-21T01:41:50.916Z,0.00
2023-04-21T01:42:50.944Z,0.00
2023-04-21T01:43:50.967Z,0.00
2023-04-21T01:44:51.041Z,0.00
2023-04-21T01:45:51.034Z,0.00
2023-04-21T01:46:51.059Z,0.00
2023-04-21T01:47:51.095Z,0.00
2023-04-21T01:48:51.098Z,0.00
2023-04-21T01:49:51.124Z,0.00
2023-04-21T01:50:51.145Z,0.00
2023-04-21T01:51:51.168Z,0.00
2023-04-21T01:52:51.197Z,0.00
2023-04-21T01:53:51.238Z,0.00
2023-04-21T01:54:51.246Z,0.00
2023-04-21T01:55:51.283Z,0.00
2023-04-21T01:56:51.445Z,0.00
2023-04-21T01:57:51.328Z,0.00
2023-04-21T01:58:51.350Z,0.00
2023-04-21T01:59:51.385Z,0.00
2023-04-21T02:00:51.399Z,0.00
2023-04-21T02:01:51.483Z,0.00
2023-04-21T02:02:51.538Z,0.00
2023-04-21T02:03:51.697Z,0.00
2023-04-21T02:04:51.502Z,0.00
2023-04-21T02:05:51.525Z,0.00
2023-04-21T02:06:51.546Z,0.00
2023-04-21T02:07:51.584Z,0.00
2023-04-21T02:08:51.604Z,0.00
2023-04-21T02:09:51.652Z,0.00
2023-04-21T02:10:51.651Z,0.00
2023-04-21T02:11:51.674Z,0.00
2023-04-21T02:12:51.700Z,0.00
2023-04-21T02:13:51.722Z,0.00
2023-04-21T02:14:51.747Z,0.00
2023-04-21T02:15:59.644Z,0.00
2023-04-21T02:16:51.840Z,0.00
2023-04-21T02:17:51.869Z,0.00
2023-04-21T02:18:51.849Z,0.00
2023-04-21T02:19:51.872Z,0.00
2023-04-21T02:20:51.897Z,0.00
2023-04-21T02:21:51.918Z,0.00
2023-04-21T02:22:51.956Z,0.00
2023-04-21T02:23:52.022Z,0.00
2023-04-21T02:24:52.010Z,0.00
2023-04-21T02:25:52.041Z,0.00
2023-04-21T02:26:52.053Z,0.00
2023-04-21T02:27:52.073Z,0.00
2023-04-21T02:28:52.107Z,0.00
2023-04-21T02:29:52.122Z,0.00
2023-04-21T02:30:52.198Z,0.00
2023-04-21T02:31:59.356Z,0.00
2023-04-21T02:32:52.293Z,0.00
2023-04-21T02:33:52.229Z,0.00
2023-04-21T02:34:52.252Z,0.00
2023-04-21T02:35:52.273Z,0.00
2023-04-21T02:36:52.310Z,0.00
2023-04-21T02:37:52.324Z,0.00
2023-04-21T02:38:52.351Z,0.00
2023-04-21T02:39:52.388Z,0.00
2023-04-21T02:40:52.416Z,0.00
2023-04-21T02:41:52.447Z,0.00
2023-04-21T02:42:52.455Z,0.00
2023-04-21T02:43:52.483Z,0.00
2023-04-21T02:44:52.497Z,0.00
2023-04-21T02:45:52.522Z,0.00
2023-04-21T02:46:52.756Z,0.00
2023-04-21T02:47:52.611Z,0.00
2023-04-21T02:48:52.599Z,0.00
2023-04-21T02:49:52.621Z,0.00
2023-04-21T02:50:52.648Z,0.00
2023-04-21T02:51:52.681Z,0.00
2023-04-21T02:52:52.702Z,0.00
2023-04-21T02:53:52.727Z,0.00
2023-04-21T02:54:52.756Z,0.00
2023-04-21T02:55:52.776Z,0.00
2023-04-21T02:56:52.999Z,0.00
2023-04-21T02:57:53.042Z,0.00
2023-04-21T02:58:53.066Z,0.00
2023-04-21T02:59:53.028Z,0.00
2023-04-21T03:00:52.920Z,0.00
2023-04-21T03:01:52.925Z,0.00
2023-04-21T03:02:53.368Z,0.00
2023-04-21T03:03:53.109Z,0.00
2023-04-21T03:04:53.000Z,0.00
2023-04-21T03:05:53.022Z,0.00
2023-04-21T03:06:53.051Z,0.00
2023-04-21T03:07:53.075Z,0.00
2023-04-21T03:08:53.097Z,0.00
2023-04-21T03:09:53.119Z,0.00
2023-04-21T03:10:53.150Z,0.00
2023-04-21T03:11:53.174Z,0.00
2023-04-21T03:12:53.212Z,0.00
2023-04-21T03:13:53.243Z,0.00
2023-04-21T03:14:53.249Z,0.00
2023-04-21T03:15:53.272Z,0.00
2023-04-21T03:16:53.389Z,0.00
2023-04-21T03:17:53.407Z,0.00
2023-04-21T03:18:53.354Z,0.00
2023-04-21T03:19:53.375Z,0.00
2023-04-21T03:20:53.398Z,0.00
2023-04-21T03:21:53.436Z,0.00
2023-04-21T03:22:53.451Z,0.00
2023-04-21T03:23:53.477Z,0.00
2023-04-21T03:24:53.497Z,0.00
2023-04-21T03:25:53.522Z,0.00
2023-04-21T03:26:53.556Z,0.00
2023-04-21T03:27:53.573Z,0.00
2023-04-21T03:28:53.598Z,0.00
2023-04-21T03:29:53.646Z,0.00
2023-04-21T03:30:53.648Z,0.00
2023-04-21T03:31:53.695Z,0.00
2023-04-21T03:32:53.732Z,0.00
2023-04-21T03:33:53.727Z,0.00
2023-04-21T03:34:53.747Z,0.00
2023-04-21T03:35:53.790Z,0.00
2023-04-21T03:36:53.797Z,0.00
2023-04-21T03:37:53.835Z,0.00
2023-04-21T03:38:53.853Z,0.00
2023-04-21T03:39:53.869Z,0.00
2023-04-21T03:40:53.900Z,0.00
2023-04-21T03:41:53.923Z,0.00
2023-04-21T03:42:53.949Z,0.00
2023-04-21T03:43:53.972Z,0.00
2023-04-21T03:44:53.995Z,0.00
2023-04-21T03:45:54.082Z,0.00
2023-04-21T03:46:54.048Z,0.00
2023-04-21T03:47:54.087Z,0.00
2023-04-21T03:48:54.097Z,0.00
2023-04-21T03:49:54.123Z,0.00
2023-04-21T03:50:54.146Z,0.00
2023-04-21T03:51:54.173Z,0.00
2023-04-21T03:52:54.192Z,0.00
2023-04-21T03:53:54.222Z,0.00
2023-04-21T03:54:54.248Z,4.00
2023-04-21T03:55:54.274Z,4.00
2023-04-21T03:56:54.297Z,0.00
2023-04-21T03:57:54.320Z,4.00
2023-04-21T03:58:54.346Z,0.00
2023-04-21T03:59:54.367Z,4.00
2023-04-21T04:00:54.394Z,4.00
2023-04-21T04:01:54.433Z,4.00
2023-04-21T04:02:54.525Z,4.00
2023-04-21T04:03:54.635Z,8.00
2023-04-21T04:04:54.526Z,8.00
2023-04-21T04:05:54.520Z,12.00
2023-04-21T04:06:54.544Z,12.00
2023-04-21T04:07:54.563Z,12.00
2023-04-21T04:08:54.589Z,16.00
2023-04-21T04:09:54.614Z,20.00
2023-04-21T04:10:54.639Z,20.00
2023-04-21T04:11:54.681Z,24.00
2023-04-21T04:12:54.694Z,32.00
2023-04-21T04:13:54.713Z,36.00
2023-04-21T04:14:54.740Z,44.00
2023-04-21T04:15:54.805Z,48.00
2023-04-21T04:16:54.786Z,56.00
2023-04-21T04:17:54.861Z,60.00
2023-04-21T04:18:54.841Z,72.00
2023-04-21T04:19:54.860Z,80.00
2023-04-21T04:20:54.883Z,96.00
2023-04-21T04:21:54.909Z,104.00
2023-04-21T04:22:54.934Z,116.00
2023-04-21T04:23:54.959Z,124.00
2023-04-21T04:24:54.986Z,136.00
2023-04-21T04:25:55.009Z,152.00
2023-04-21T04:26:55.033Z,164.00
2023-04-21T04:27:55.056Z,176.00
2023-04-21T04:28:55.081Z,192.00
2023-04-21T04:29:55.105Z,208.00
2023-04-21T04:30:55.158Z,220.00
2023-04-21T04:31:55.258Z,240.00
2023-04-21T04:32:55.252Z,260.00
2023-04-21T04:33:55.753Z,284.00
2023-04-21T04:34:55.228Z,316.00
2023-04-21T04:35:55.248Z,356.00
2023-04-21T04:36:55.278Z,400.00
2023-04-21T04:37:55.300Z,448.00
2023-04-21T04:38:55.326Z,500.00
2023-04-21T04:39:55.373Z,548.00
2023-04-21T04:40:55.379Z,584.00
2023-04-21T04:41:55.424Z,628.00
2023-04-21T04:42:55.431Z,668.00
2023-04-21T04:43:55.454Z,712.00
2023-04-21T04:44:55.474Z,760.00
2023-04-21T04:45:55.496Z,800.00
2023-04-21T04:46:55.585Z,836.00
2023-04-21T04:47:55.601Z,884.00
2023-04-21T04:48:55.568Z,932.00
2023-04-21T04:49:55.613Z,988.00
2023-04-21T04:50:55.627Z,1048.00
2023-04-21T04:51:55.641Z,1128.00
2023-04-21T04:52:55.670Z,1236.00
2023-04-21T04:53:55.694Z,1356.00
2023-04-21T04:54:55.719Z,1492.00
2023-04-21T04:55:55.740Z,1612.00
2023-04-21T04:56:55.766Z,1724.00
2023-04-21T04:57:55.790Z,1816.00
2023-04-21T04:58:55.816Z,1872.00
2023-04-21T04:59:55.839Z,1900.00
2023-04-21T05:00:55.862Z,1912.00
2023-04-21T05:01:55.934Z,1924.00
2023-04-21T05:02:56.055Z,1928.00
2023-04-21T05:03:56.106Z,1976.00
2023-04-21T05:04:56.104Z,2052.00
2023-04-21T05:05:56.005Z,2184.00
2023-04-21T05:06:56.024Z,2348.00
2023-04-21T05:07:56.038Z,2528.00
2023-04-21T05:08:56.084Z,2684.00
2023-04-21T05:09:56.087Z,2800.00
2023-04-21T05:10:56.120Z,2900.00
2023-04-21T05:11:56.138Z,3000.00
2023-04-21T05:12:56.160Z,3112.00
2023-04-21T05:13:56.189Z,3256.00
2023-04-21T05:14:56.212Z,3512.00
2023-04-21T05:15:56.235Z,3652.00
2023-04-21T05:16:56.287Z,3516.00
2023-04-21T05:17:56.323Z,3272.00
2023-04-21T05:18:56.368Z,3216.00
2023-04-21T05:19:56.361Z,3204.00
2023-04-21T05:20:56.360Z,3220.00
2023-04-21T05:21:56.402Z,3272.00
2023-04-21T05:22:56.418Z,3312.00
2023-04-21T05:23:56.440Z,3348.00
2023-04-21T05:24:56.466Z,3396.00
2023-04-21T05:25:56.490Z,3500.00
2023-04-21T05:26:56.519Z,3708.00
2023-04-21T05:27:56.531Z,3708.00
2023-04-21T05:28:56.601Z,3700.00
2023-04-21T05:29:56.581Z,3752.00
2023-04-21T05:30:56.609Z,3784.00
2023-04-21T05:31:56.742Z,3752.00
2023-04-21T05:32:56.704Z,3700.00
2023-04-21T05:33:56.681Z,3572.00
2023-04-21T05:34:56.727Z,3384.00
2023-04-21T05:35:56.730Z,3244.00
2023-04-21T05:36:56.758Z,3176.00
2023-04-21T05:37:56.802Z,3124.00
2023-04-21T05:38:56.812Z,3068.00
2023-04-21T05:39:56.832Z,2936.00
2023-04-21T05:40:56.857Z,2752.00
2023-04-21T05:41:56.884Z,2660.00
2023-04-21T05:42:56.922Z,2588.00
2023-04-21T05:43:56.931Z,2520.00
2023-04-21T05:44:56.954Z,2396.00
2023-04-21T05:45:57.016Z,2296.00
2023-04-21T05:46:57.007Z,2220.00
2023-04-21T05:47:57.097Z,2176.00
2023-04-21T05:48:57.058Z,2160.00
2023-04-21T05:49:57.080Z,2272.00
2023-04-21T05:50:57.104Z,2628.00
2023-04-21T05:51:57.132Z,3088.00
2023-04-21T05:52:57.152Z,3560.00
2023-04-21T05:53:57.203Z,4056.00
2023-04-21T05:54:57.203Z,4568.00
2023-04-21T05:55:57.228Z,4504.00
2023-04-21T05:56:57.256Z,4432.00
2023-04-21T05:57:57.281Z,4220.00
2023-04-21T05:58:57.307Z,3888.00
2023-04-21T05:59:57.334Z,3832.00
2023-04-21T06:00:57.368Z,4148.00
2023-04-21T06:01:57.381Z,5972.00
2023-04-21T06:02:57.590Z,5644.00
2023-04-21T06:03:57.586Z,5176.00
2023-04-21T06:04:57.594Z,5428.00
2023-04-21T06:05:57.528Z,6440.00
2023-04-21T06:06:57.539Z,7172.00
2023-04-21T06:07:57.532Z,7388.00
2023-04-21T06:08:57.560Z,6020.00
2023-04-21T06:09:57.606Z,5580.00
2023-04-21T06:10:57.605Z,4404.00
2023-04-21T06:11:57.637Z,4228.00
2023-04-21T06:12:57.665Z,5072.00
2023-04-21T06:13:57.691Z,5100.00
2023-04-21T06:14:57.838Z,5712.00
2023-04-21T06:15:57.808Z,6268.00
2023-04-21T06:16:57.761Z,6272.00
2023-04-21T06:17:57.863Z,6376.00
2023-04-21T06:18:57.807Z,6348.00
2023-04-21T06:19:57.835Z,8168.00
2023-04-21T06:20:57.858Z,11700.00
2023-04-21T06:21:57.895Z,12072.00
2023-04-21T06:22:57.912Z,12148.00
2023-04-21T06:23:57.934Z,10988.00
2023-04-21T06:24:58.778Z,9736.00
2023-04-21T06:25:58.012Z,11196.00
2023-04-21T06:26:58.014Z,13840.00
2023-04-21T06:27:58.042Z,13488.00
2023-04-21T06:28:58.074Z,12744.00
2023-04-21T06:29:58.092Z,12288.00
2023-04-21T06:30:58.119Z,12348.00
2023-04-21T06:31:58.201Z,11860.00
2023-04-21T06:32:58.223Z,12044.00
2023-04-21T06:33:58.198Z,12388.00
2023-04-21T06:34:58.231Z,13200.00
2023-04-21T06:35:58.254Z,13888.00
2023-04-21T06:36:58.277Z,12512.00
2023-04-21T06:37:58.306Z,15088.00
2023-04-21T06:38:58.328Z,16992.00
2023-04-21T06:39:58.358Z,27072.00
2023-04-21T06:40:58.380Z,21152.00
2023-04-21T06:41:58.426Z,28480.00
2023-04-21T06:42:58.515Z,17504.00
2023-04-21T06:43:58.465Z,14468.00
2023-04-21T06:44:58.551Z,13364.00
2023-04-21T06:45:58.518Z,10416.00
2023-04-21T06:46:58.616Z,16736.00
2023-04-21T06:47:58.696Z,21280.00
2023-04-21T06:48:58.681Z,11784.00
2023-04-21T06:49:58.636Z,17536.00
2023-04-21T06:50:58.653Z,13424.00
2023-04-21T06:51:58.680Z,14424.00
2023-04-21T06:52:58.705Z,24832.00
2023-04-21T06:53:58.737Z,32800.00
2023-04-21T06:54:58.760Z,36160.00
2023-04-21T06:56:01.817Z,32288.00
2023-04-21T06:56:58.814Z,19488.00
2023-04-21T06:57:58.861Z,28640.00
2023-04-21T06:58:58.872Z,17024.00
2023-04-21T06:59:58.898Z,12040.00
2023-04-21T07:00:58.989Z,10384.00
2023-04-21T07:01:58.953Z,10460.00
2023-04-21T07:02:59.053Z,18496.00
2023-04-21T07:03:59.112Z,18880.00
2023-04-21T07:04:59.039Z,13404.00
2023-04-21T07:05:59.076Z,10932.00
2023-04-21T07:07:01.670Z,11284.00
2023-04-21T07:07:59.126Z,13212.00
2023-04-21T07:08:59.154Z,17184.00
2023-04-21T07:09:59.187Z,14136.00
2023-04-21T07:10:59.207Z,19584.00
2023-04-21T07:11:59.240Z,17344.00
2023-04-21T07:12:59.266Z,31136.00
2023-04-21T07:13:59.311Z,22848.00
2023-04-21T07:14:59.328Z,15492.00
2023-04-21T07:15:59.365Z,24064.00
2023-04-21T07:16:59.479Z,21760.00
2023-04-21T07:17:59.438Z,20544.00
2023-04-21T07:18:59.436Z,29920.00
2023-04-21T07:19:59.465Z,32448.00
2023-04-21T07:20:59.493Z,25824.00
2023-04-21T07:21:59.526Z,25728.00
2023-04-21T07:22:59.557Z,28960.00
2023-04-21T07:23:59.582Z,50336.00
2023-04-21T07:24:59.610Z,54240.00
2023-04-21T07:27:52.312Z,14384.00
2023-04-21T07:28:52.329Z,32576.00
2023-04-21T07:29:52.374Z,28032.00
2023-04-21T07:30:52.422Z,16864.00
2023-04-21T07:31:52.420Z,12156.00
2023-04-21T07:32:52.495Z,11724.00
2023-04-21T07:33:53.497Z,9920.00
2023-04-21T07:34:52.499Z,15688.00
2023-04-21T07:35:52.539Z,15588.00
2023-04-21T07:36:52.570Z,11164.00
2023-04-21T07:37:52.588Z,11136.00
2023-04-21T07:38:52.624Z,9908.00
2023-04-21T07:39:52.861Z,9904.00
2023-04-21T07:40:52.682Z,12424.00
2023-04-21T07:41:52.728Z,13456.00
2023-04-21T07:42:52.727Z,11964.00
2023-04-21T07:43:53.878Z,8480.00
2023-04-21T07:44:52.787Z,13612.00
2023-04-21T07:45:53.139Z,11600.00
2023-04-21T07:46:52.842Z,8976.00
2023-04-21T07:49:48.474Z,13864.00
2023-04-21T07:50:48.223Z,29536.00
2023-04-21T07:51:48.283Z,32032.00
2023-04-21T07:52:48.690Z,60736.00
2023-04-21T07:53:48.324Z,29792.00
2023-04-21T07:54:48.352Z,21600.00
2023-04-21T07:55:49.396Z,15584.00
2023-04-21T07:56:48.414Z,11544.00
2023-04-21T07:58:48.470Z,21312.00
2023-04-21T08:00:48.929Z,13304.00
2023-04-21T08:01:48.578Z,12952.00
2023-04-21T08:02:48.755Z,10900.00
2023-04-21T08:03:48.935Z,10144.00
2023-04-21T08:04:48.728Z,9400.00
2023-04-21T08:05:48.757Z,9100.00
2023-04-21T08:06:48.815Z,9128.00
2023-04-21T08:07:48.722Z,12408.00
2023-04-21T08:08:48.768Z,23616.00
2023-04-21T08:09:49.000Z,10708.00
2023-04-21T08:10:48.803Z,11992.00
2023-04-21T08:11:48.850Z,10524.00
2023-04-21T08:12:48.872Z,10324.00
2023-04-21T08:13:48.906Z,11136.00
2023-04-21T08:14:49.137Z,12008.00
2023-04-21T08:15:48.987Z,10704.00
2023-04-21T08:16:49.057Z,14644.00
2023-04-21T08:17:49.686Z,12300.00
2023-04-21T08:18:49.065Z,10304.00
2023-04-21T08:19:49.068Z,11012.00
2023-04-21T08:20:49.525Z,12768.00
2023-04-21T08:21:49.541Z,10588.00
2023-04-21T08:22:49.211Z,10332.00
2023-04-21T08:23:49.504Z,10940.00
2023-04-21T08:24:49.221Z,11484.00
2023-04-21T08:25:49.461Z,11400.00
2023-04-21T08:26:49.504Z,12568.00
2023-04-21T08:28:49.331Z,12952.00
2023-04-21T08:29:49.357Z,14136.00
2023-04-21T08:30:49.428Z,12132.00
2023-04-21T08:31:49.438Z,29280.00
2023-04-21T08:32:49.697Z,12876.00
2023-04-21T08:34:00.445Z,18624.00
2023-04-21T08:36:02.490Z,61088.00
2023-04-21T08:36:49.607Z,59776.00
2023-04-21T08:37:52.273Z,57024.00
2023-04-21T08:39:49.646Z,21184.00
2023-04-21T08:40:49.673Z,12292.00
2023-04-21T08:41:49.706Z,14064.00
2023-04-21T08:42:49.733Z,19776.00
2023-04-21T08:43:49.770Z,19616.00
2023-04-21T08:44:49.796Z,21920.00
2023-04-21T08:45:51.059Z,18720.00
2023-04-21T08:46:49.849Z,16832.00
2023-04-21T08:47:49.905Z,13204.00
2023-04-21T08:48:49.922Z,12896.00
2023-04-21T08:49:49.995Z,14824.00
2023-04-21T08:54:50.097Z,31072.00
2023-04-21T08:55:59.582Z,33536.00
2023-04-21T08:56:50.167Z,26976.00
2023-04-21T08:57:50.188Z,19904.00
2023-04-21T08:58:50.228Z,21536.00
2023-04-21T08:59:50.252Z,24096.00
2023-04-21T09:00:50.348Z,22624.00
2023-04-21T09:01:50.364Z,15124.00
2023-04-21T09:02:59.368Z,34656.00
2023-04-21T09:03:50.498Z,44128.00
2023-04-21T09:04:50.799Z,31424.00
2023-04-21T09:05:50.672Z,39264.00
2023-04-21T09:06:50.653Z,27072.00
2023-04-21T09:07:50.500Z,21920.00
2023-04-21T09:08:50.533Z,25216.00
2023-04-21T09:09:50.569Z,36704.00
2023-04-21T09:10:52.484Z,35808.00
2023-04-21T09:11:50.648Z,34240.00
2023-04-21T09:12:50.664Z,34912.00
2023-04-21T09:13:50.695Z,32896.00
2023-04-21T09:14:50.729Z,26880.00
2023-04-21T09:15:50.764Z,32160.00
2023-04-21T09:16:50.810Z,30048.00
2023-04-21T09:17:51.658Z,31136.00
2023-04-21T09:18:50.859Z,30816.00
2023-04-21T09:19:50.901Z,26368.00
2023-04-21T09:20:50.931Z,19168.00
2023-04-21T09:21:50.983Z,21696.00
2023-04-21T09:22:51.001Z,27776.00
2023-04-21T09:23:51.043Z,27360.00
2023-04-21T09:24:51.068Z,20768.00
2023-04-21T09:25:51.092Z,24704.00
2023-04-21T09:26:51.127Z,22496.00
2023-04-21T09:27:51.169Z,25376.00
2023-04-21T09:28:51.195Z,22816.00
2023-04-21T09:29:51.226Z,17344.00
2023-04-21T09:30:51.294Z,14668.00
2023-04-21T09:31:51.294Z,11592.00
2023-04-21T09:32:51.366Z,19520.00
2023-04-21T09:33:57.770Z,17984.00
2023-04-21T09:34:51.396Z,25376.00
2023-04-21T09:35:51.430Z,17280.00
2023-04-21T09:36:51.478Z,16960.00
2023-04-21T09:37:51.520Z,26464.00
2023-04-21T09:38:58.832Z,19392.00
2023-04-21T09:40:03.663Z,23744.00
2023-04-21T09:40:51.594Z,17312.00
2023-04-21T09:41:51.624Z,24352.00
2023-04-21T09:42:51.661Z,28608.00
2023-04-21T09:43:51.697Z,29856.00
2023-04-21T09:44:59.393Z,29696.00
2023-04-21T09:45:51.776Z,16768.00
2023-04-21T09:46:51.917Z,14764.00
2023-04-21T09:47:51.921Z,22912.00
2023-04-21T09:48:51.865Z,15964.00
2023-04-21T09:49:51.893Z,14668.00
2023-04-21T09:51:24.267Z,17696.00
2023-04-21T09:52:51.992Z,14404.00
2023-04-21T09:53:52.046Z,41120.00
2023-04-21T09:54:52.085Z,35520.00
2023-04-21T09:55:52.083Z,32256.00
2023-04-21T09:56:52.119Z,18368.00
2023-04-21T09:57:52.155Z,18080.00
2023-04-21T09:58:52.187Z,33024.00
2023-04-21T09:59:52.216Z,13132.00
2023-04-21T10:00:52.249Z,13704.00
2023-04-21T10:01:52.323Z,25056.00
2023-04-21T10:02:52.463Z,17632.00
2023-04-21T10:03:52.777Z,15140.00
2023-04-21T10:04:52.672Z,19392.00
2023-04-21T10:05:52.511Z,12456.00
2023-04-21T10:06:52.440Z,13560.00
2023-04-21T10:07:52.477Z,14240.00
2023-04-21T10:08:52.504Z,12208.00
2023-04-21T10:09:52.829Z,11636.00
2023-04-21T10:10:52.570Z,11952.00
2023-04-21T10:11:52.602Z,10656.00
2023-04-21T10:12:52.633Z,13540.00
2023-04-21T10:13:52.689Z,14020.00
2023-04-21T10:14:52.697Z,12916.00
2023-04-21T10:15:52.752Z,10796.00
2023-04-21T10:16:52.761Z,12228.00
2023-04-21T10:17:53.029Z,14064.00
2023-04-21T10:18:53.033Z,16396.00
2023-04-21T10:19:53.103Z,15128.00
2023-04-21T10:20:53.089Z,13404.00
2023-04-21T10:21:52.973Z,11724.00
2023-04-21T10:22:53.100Z,11184.00
2023-04-21T10:23:52.986Z,11468.00
2023-04-21T10:24:53.012Z,12636.00
2023-04-21T10:25:53.074Z,13152.00
2023-04-21T10:26:55.118Z,12824.00
2023-04-21T10:27:53.108Z,11988.00
2023-04-21T10:28:53.146Z,12196.00
2023-04-21T10:29:56.966Z,14088.00
2023-04-21T10:30:53.203Z,13336.00
2023-04-21T10:31:53.280Z,15520.00
2023-04-21T10:32:53.302Z,15552.00
2023-04-21T10:33:53.294Z,13080.00
2023-04-21T10:34:53.329Z,11116.00
2023-04-21T10:35:53.360Z,9848.00
2023-04-21T10:36:53.395Z,8584.00
2023-04-21T10:37:53.471Z,11212.00
2023-04-21T10:38:53.461Z,12912.00
2023-04-21T10:39:53.481Z,12652.00
2023-04-21T10:40:53.526Z,12484.00
2023-04-21T10:41:53.566Z,10712.00
2023-04-21T10:42:53.581Z,12572.00
2023-04-21T10:43:53.611Z,11252.00
2023-04-21T10:44:53.650Z,11348.00
2023-04-21T10:45:53.672Z,13404.00
2023-04-21T10:46:53.832Z,13844.00
2023-04-21T10:47:53.794Z,14780.00
2023-04-21T10:48:53.787Z,15744.00
2023-04-21T10:49:53.797Z,13624.00
2023-04-21T10:50:53.836Z,15296.00
2023-04-21T10:51:53.866Z,16096.00
2023-04-21T10:52:53.901Z,16448.00
2023-04-21T10:53:53.929Z,16384.00
2023-04-21T10:54:53.964Z,16224.00
2023-04-21T10:55:53.993Z,16704.00
2023-04-21T10:56:54.053Z,16448.00
2023-04-21T10:57:54.075Z,14940.00
2023-04-21T10:58:54.093Z,14600.00
2023-04-21T10:59:54.128Z,14688.00
2023-04-21T11:00:54.171Z,14248.00
2023-04-21T11:01:54.202Z,12604.00
2023-04-21T11:02:54.349Z,14388.00
2023-04-21T11:03:54.495Z,12748.00
2023-04-21T11:04:54.623Z,14328.00
2023-04-21T11:05:54.317Z,13760.00
2023-04-21T11:06:54.351Z,12168.00
2023-04-21T11:07:54.379Z,11484.00
2023-04-21T11:08:54.424Z,11000.00
2023-04-21T11:09:54.447Z,9388.00
2023-04-21T11:10:54.506Z,9716.00
2023-04-21T11:11:54.511Z,10232.00
2023-04-21T11:12:54.545Z,8256.00
2023-04-21T11:13:54.604Z,8272.00
2023-04-21T11:14:54.610Z,10712.00
2023-04-21T11:15:54.642Z,11036.00
2023-04-21T11:16:54.726Z,9956.00
2023-04-21T11:17:54.712Z,9536.00
2023-04-21T11:18:54.737Z,11896.00
2023-04-21T11:19:54.786Z,11912.00
2023-04-21T11:20:54.798Z,11736.00
2023-04-21T11:21:54.840Z,10000.00
2023-04-21T11:22:54.884Z,11660.00
2023-04-21T11:23:55.220Z,11900.00
2023-04-21T11:24:54.931Z,10636.00
2023-04-21T11:25:54.960Z,12140.00
2023-04-21T11:26:55.001Z,12776.00
2023-04-21T11:27:55.025Z,12764.00
2023-04-21T11:28:55.255Z,12648.00
2023-04-21T11:29:55.104Z,11644.00
2023-04-21T11:30:55.219Z,11596.00
2023-04-21T11:31:55.149Z,11840.00
2023-04-21T11:32:55.205Z,11836.00
2023-04-21T11:33:55.211Z,12912.00
2023-04-21T11:34:55.256Z,12044.00
2023-04-21T11:35:55.307Z,12268.00
2023-04-21T11:36:55.314Z,12864.00
2023-04-21T11:37:55.355Z,14616.00
2023-04-21T11:38:55.381Z,14808.00
2023-04-21T11:39:55.405Z,14412.00
2023-04-21T11:40:55.465Z,13704.00
2023-04-21T11:41:55.674Z,13732.00
2023-04-21T11:42:55.505Z,11736.00
2023-04-21T11:43:55.533Z,11252.00
2023-04-21T11:44:55.578Z,9688.00
2023-04-21T11:46:55.650Z,9668.00
2023-04-21T11:47:55.712Z,9612.00
2023-04-21T11:48:55.694Z,8852.00
2023-04-21T11:49:55.737Z,8980.00
2023-04-21T11:50:55.755Z,9632.00
2023-04-21T11:51:56.120Z,9576.00
2023-04-21T11:52:55.822Z,9288.00
2023-04-21T11:53:55.874Z,9176.00
2023-04-21T11:54:55.898Z,9032.00
2023-04-21T11:55:56.048Z,8532.00
2023-04-21T11:56:55.948Z,7736.00
2023-04-21T11:57:55.983Z,8604.00
2023-04-21T11:58:56.012Z,8504.00
2023-04-21T11:59:56.049Z,8352.00
2023-04-21T12:00:56.255Z,8044.00
2023-04-21T12:01:56.162Z,8100.00
2023-04-21T12:02:56.579Z,6828.00
2023-04-21T12:03:56.416Z,7996.00
2023-04-21T12:04:56.403Z,8992.00
2023-04-21T12:05:56.449Z,8232.00
2023-04-21T12:06:56.579Z,8360.00
2023-04-21T12:07:56.415Z,8008.00
2023-04-21T12:08:56.643Z,9248.00
2023-04-21T12:09:56.557Z,11080.00
2023-04-21T12:10:56.407Z,12916.00
2023-04-21T12:12:00.259Z,12704.00
2023-04-21T12:12:56.446Z,11976.00
2023-04-21T12:13:56.476Z,11560.00
2023-04-21T12:14:56.521Z,10772.00
2023-04-21T12:16:56.569Z,10836.00
2023-04-21T12:17:56.632Z,9860.00
2023-04-21T12:18:56.657Z,9520.00
2023-04-21T12:19:56.664Z,8900.00
2023-04-21T12:20:56.706Z,7004.00
2023-04-21T12:21:56.756Z,7032.00
2023-04-21T12:22:56.768Z,7056.00
2023-04-21T12:23:56.807Z,7408.00
2023-04-21T12:24:56.816Z,7464.00
2023-04-21T12:25:56.855Z,7140.00
2023-04-21T12:26:56.879Z,8272.00
2023-04-21T12:27:56.913Z,7268.00
2023-04-21T12:28:56.951Z,9120.00
2023-04-21T12:29:56.980Z,9180.00
2023-04-21T12:30:57.004Z,7712.00
2023-04-21T12:31:57.091Z,7440.00
2023-04-21T12:32:57.206Z,7344.00
2023-04-21T12:33:57.145Z,7972.00
2023-04-21T12:34:57.148Z,9376.00
2023-04-21T12:35:57.162Z,9700.00
2023-04-21T12:36:57.189Z,10260.00